Time;durP1;ratioP1;P1;durP2;ratioP2;P2;SDS_P1;SDS_P2;PMS_P1;PMS_P2;Temp;Humidity;BMP_temperature;BMP_pressure;BME280_temperature;BME280_humidity;BME280_pressure;Samples;Min_cycle;Max_cycle;Signal;HPM_P1;HPM_P2
2022/11/20 00:00:23;;;;;;;47.33;32.47;;;;;;;-6.46;100.00;158901.56;5009706;28;20034;-65
2022/11/20 00:02:49;;;;;;;39.40;28.48;;;;;;;-6.47;100.00;158898.88;5008704;28;20041;-65
2022/11/20 00:05:14;;;;;;;44.03;30.17;;;;;;;-6.46;100.00;158900.19;5008572;28;20041;-65
2022/11/20 00:07:39;;;;;;;44.38;29.55;;;;;;;-6.44;100.00;158906.84;5009976;28;20038;-65
2022/11/20 00:10:05;;;;;;;62.75;35.50;;;;;;;-6.44;100.00;158906.84;5013566;28;20033;-65
2022/11/20 00:12:31;;;;;;;51.35;31.45;;;;;;;-6.42;100.00;158912.19;5012071;28;20149;-65
2022/11/20 00:14:56;;;;;;;47.22;32.20;;;;;;;-6.45;100.00;158904.22;5013381;28;20030;-65
2022/11/20 00:17:21;;;;;;;45.40;30.15;;;;;;;-6.41;100.00;158914.88;5012147;28;20049;-65
2022/11/20 00:19:47;;;;;;;48.15;27.92;;;;;;;-6.44;100.00;158905.53;5013628;28;20025;-65
2022/11/20 00:22:12;;;;;;;37.58;25.20;;;;;;;-6.48;100.00;158896.22;5011588;28;20505;-65
2022/11/20 00:24:37;;;;;;;36.75;26.02;;;;;;;-6.55;100.00;158877.53;5013251;28;20045;-65
2022/11/20 00:27:03;;;;;;;35.25;26.42;;;;;;;-6.61;100.00;158861.56;5011483;28;20053;-65
2022/11/20 00:29:28;;;;;;;38.95;28.00;;;;;;;-6.62;100.00;158860.19;5013341;28;20021;-65
2022/11/20 00:31:53;;;;;;;39.03;28.02;;;;;;;-6.62;100.00;158860.19;5011612;28;20038;-65
2022/11/20 00:34:19;;;;;;;38.63;26.83;;;;;;;-6.58;100.00;158869.53;5013076;28;20084;-65
2022/11/20 00:36:44;;;;;;;37.20;25.67;;;;;;;-6.65;100.00;158850.84;5011503;28;20680;-65
2022/11/20 00:39:09;;;;;;;41.35;30.02;;;;;;;-6.66;100.00;158848.25;5013657;28;20026;-65
2022/11/20 00:41:35;;;;;;;51.72;31.55;;;;;;;-6.67;100.00;158846.88;5012014;28;20049;-65
2022/11/20 00:44:00;;;;;;;47.65;31.80;;;;;;;-6.64;100.00;158853.53;5012167;28;20112;-65
2022/11/20 00:46:27;;;;;;;49.78;33.88;;;;;;;-6.65;100.00;158850.84;5011759;28;20037;-65
2022/11/20 00:48:53;;;;;;;50.08;33.08;;;;;;;-6.71;100.00;158837.53;5012655;28;20103;-64
2022/11/20 00:51:21;;;;;;;56.13;34.53;;;;;;;-6.74;100.00;158829.53;5011462;28;20508;-64
2022/11/20 00:53:47;;;;;;;56.35;34.10;;;;;;;-6.66;100.00;158848.25;5012582;28;20598;-64
2022/11/20 00:56:14;;;;;;;54.38;32.92;;;;;;;-6.67;100.00;158845.56;5011395;28;20037;-64
2022/11/20 00:58:42;;;;;;;53.67;33.03;;;;;;;-6.72;100.00;158834.88;5012172;28;20108;-64
2022/11/20 01:01:14;;;;;;;43.35;29.70;;;;;;;-6.75;100.00;158825.53;5011526;28;20029;-64
2022/11/20 01:03:42;;;;;;;42.70;27.55;;;;;;;-6.82;100.00;158808.25;5012514;28;20497;-64
2022/11/20 01:06:16;;;;;;;56.90;32.58;;;;;;;-6.83;100.00;158805.56;5011146;28;20041;-64
2022/11/20 01:08:41;;;;;;;51.55;33.58;;;;;;;-6.82;100.00;158806.88;5012594;28;20030;-64
2022/11/20 01:11:14;;;;;;;57.90;35.42;;;;;;;-6.89;100.00;158790.88;5011452;28;20033;-64
2022/11/20 01:13:40;;;;;;;61.25;35.35;;;;;;;-6.91;100.00;158784.22;5012054;28;20022;-64
2022/11/20 01:16:15;;;;;;;62.58;34.20;;;;;;;-7.06;100.00;158746.91;5011361;28;20030;-64
2022/11/20 01:18:43;;;;;;;47.40;32.80;;;;;;;-6.95;100.00;158773.53;5012510;28;20693;-64
2022/11/20 01:21:11;;;;;;;41.63;30.60;;;;;;;-6.96;100.00;158770.91;5011067;28;20164;-63
2022/11/20 01:23:39;;;;;;;42.20;31.08;;;;;;;-6.96;100.00;158770.91;5012501;28;20045;-63
2022/11/20 01:26:09;;;;;;;39.67;27.00;;;;;;;-6.96;100.00;158772.22;5010900;28;20030;-63
2022/11/20 01:28:34;;;;;;;35.75;26.15;;;;;;;-7.04;100.00;158752.25;5012088;28;20101;-63
2022/11/20 01:31:00;;;;;;;36.15;25.60;;;;;;;-7.10;100.00;158736.22;5010914;28;20026;-63
2022/11/20 01:33:26;;;;;;;37.58;27.27;;;;;;;-7.15;100.00;158722.91;5012189;28;20018;-63
2022/11/20 01:35:52;;;;;;;43.03;28.77;;;;;;;-7.17;100.00;158717.56;5011611;28;20026;-63
2022/11/20 01:38:18;;;;;;;39.63;26.02;;;;;;;-7.19;100.00;158712.28;5010876;28;20510;-63
2022/11/20 01:40:43;;;;;;;45.08;25.70;;;;;;;-7.19;100.00;158712.28;5011457;28;20021;-63
2022/11/20 01:43:22;;;;;;;40.38;28.80;;;;;;;-7.19;100.00;158712.28;5010402;28;20050;-63
2022/11/20 01:46:11;;;;;;;47.20;32.25;;;;;;;-7.19;100.00;158712.28;5011520;28;20491;-63
2022/11/20 01:48:54;;;;;;;38.33;24.98;;;;;;;-7.15;100.00;158722.91;4988033;28;20070;-63
2022/11/20 01:51:34;;;;;;;36.03;25.10;;;;;;;-7.18;100.00;158714.88;5010278;28;20042;-63
2022/11/20 01:54:04;;;;;;;36.58;26.92;;;;;;;-7.18;100.00;158714.88;5011286;28;20476;-63
2022/11/20 01:56:34;;;;;;;42.45;28.48;;;;;;;-7.17;100.00;158718.91;5010591;28;20126;-63
2022/11/20 01:59:01;;;;;;;43.13;27.60;;;;;;;-7.15;100.00;158722.91;5011488;28;20022;-63
2022/11/20 02:01:27;;;;;;;38.80;29.13;;;;;;;-7.13;100.00;158728.25;5010522;28;20489;-62
2022/11/20 02:03:52;;;;;;;45.88;29.05;;;;;;;-7.12;100.00;158729.56;5011290;28;20041;-63
2022/11/20 02:06:27;;;;;;;40.80;26.88;;;;;;;-7.12;100.00;158730.94;5009891;28;20049;-63
2022/11/20 02:08:54;;;;;;;34.08;26.40;;;;;;;-7.17;100.00;158717.56;5011246;28;20088;-63
2022/11/20 02:11:19;;;;;;;39.38;26.75;;;;;;;-7.20;100.00;158710.91;5010135;28;20386;-62
2022/11/20 02:13:45;;;;;;;41.30;27.27;;;;;;;-7.21;100.00;158706.91;5011085;28;20079;-62
2022/11/20 02:16:23;;;;;;;39.95;26.15;;;;;;;-7.21;100.00;158706.91;5010441;28;20029;-62
2022/11/20 02:18:48;;;;;;;42.00;26.42;;;;;;;-7.26;100.00;158693.63;5011408;28;20029;-62
2022/11/20 02:21:36;;;;;;;36.95;26.48;;;;;;;-7.24;100.00;158698.91;5010143;28;20500;-62
2022/11/20 02:24:12;;;;;;;42.50;28.23;;;;;;;-7.25;100.00;158697.59;5011050;28;20496;-62
2022/11/20 02:27:08;;;;;;;43.53;29.35;;;;;;;-7.28;100.00;158688.28;5009930;28;20041;-62
2022/11/20 02:29:46;;;;;;;40.42;27.58;;;;;;;-7.31;100.00;158681.63;5008927;28;20029;-62
2022/11/20 02:32:19;;;;;;;37.63;26.80;;;;;;;-7.37;100.00;158666.94;5009539;28;20072;-62
2022/11/20 02:34:44;;;;;;;43.95;28.88;;;;;;;-7.35;100.00;158672.28;5010837;28;20022;-62
2022/11/20 02:37:10;;;;;;;38.80;26.80;;;;;;;-7.38;100.00;158664.28;5009439;28;20516;-62
2022/11/20 02:39:35;;;;;;;43.30;27.95;;;;;;;-7.41;100.00;158656.25;5010962;28;20097;-62
2022/11/20 02:42:01;;;;;;;44.28;31.50;;;;;;;-7.39;100.00;158661.59;5009103;28;20492;-62
2022/11/20 02:44:27;;;;;;;49.03;31.92;;;;;;;-7.36;100.00;158668.25;5011128;28;20029;-62
2022/11/20 02:46:52;;;;;;;42.13;27.77;;;;;;;-7.34;100.00;158674.97;5009214;28;20498;-62
2022/11/20 02:49:18;;;;;;;40.25;29.70;;;;;;;-7.30;100.00;158682.94;5010690;28;20021;-62
2022/11/20 02:51:43;;;;;;;43.22;26.73;;;;;;;-7.38;100.00;158664.28;5009759;28;20049;-64
2022/11/20 02:54:08;;;;;;;33.03;23.60;;;;;;;-7.43;100.00;158649.59;5010753;28;20025;-62
2022/11/20 02:56:34;;;;;;;40.67;26.42;;;;;;;-7.50;100.00;158632.31;5008952;28;20065;-63
2022/11/20 02:58:59;;;;;;;35.30;25.48;;;;;;;-7.53;100.00;158625.66;5010403;28;20025;-63
2022/11/20 03:01:24;;;;;;;42.67;24.52;;;;;;;-7.54;100.00;158621.63;5009663;28;20099;-63
2022/11/20 03:03:50;;;;;;;43.50;27.02;;;;;;;-7.56;100.00;158616.34;5010480;28;20044;-63
2022/11/20 03:06:16;;;;;;;43.85;29.02;;;;;;;-7.56;100.00;158616.34;5009751;28;20037;-62
2022/11/20 03:08:42;;;;;;;51.72;26.88;;;;;;;-7.56;100.00;158617.63;5010922;28;20493;-62
2022/11/20 03:11:08;;;;;;;52.85;29.00;;;;;;;-7.58;100.00;158612.28;5009075;28;20099;-62
2022/11/20 03:13:35;;;;;;;38.50;25.67;;;;;;;-7.60;100.00;158605.66;5010803;28;20052;-62
2022/11/20 03:16:17;;;;;;;41.70;27.88;;;;;;;-7.63;100.00;158597.69;5009297;28;20026;-62
2022/11/20 03:18:43;;;;;;;35.55;24.45;;;;;;;-7.67;100.00;158589.66;5010135;28;20053;-63
2022/11/20 03:21:10;;;;;;;40.60;25.50;;;;;;;-7.67;100.00;158589.66;5009170;28;20471;-63
2022/11/20 03:23:37;;;;;;;36.72;22.75;;;;;;;-7.72;100.00;158576.34;5010845;28;20030;-63
2022/11/20 03:26:14;;;;;;;36.05;23.85;;;;;;;-7.72;100.00;158575.00;5008698;28;20030;-62
2022/11/20 03:28:41;;;;;;;45.22;25.10;;;;;;;-7.73;100.00;158573.69;5010986;28;20026;-62
2022/11/20 03:31:12;;;;;;;39.78;27.33;;;;;;;-7.68;100.00;158587.00;5009536;28;20113;-62
2022/11/20 03:33:39;;;;;;;36.30;23.42;;;;;;;-7.61;100.00;158604.34;5010294;28;20481;-62
2022/11/20 03:36:06;;;;;;;44.28;26.33;;;;;;;-7.63;100.00;158597.69;5009064;28;20026;-62
2022/11/20 03:38:32;;;;;;;38.05;25.75;;;;;;;-7.65;100.00;158595.00;5010960;28;20137;-63
2022/11/20 03:41:00;;;;;;;34.25;24.92;;;;;;;-7.67;100.00;158588.34;5008530;28;20105;-62
2022/11/20 03:43:26;;;;;;;47.88;26.70;;;;;;;-7.74;100.00;158571.03;5013059;28;20057;-63
2022/11/20 03:45:51;;;;;;;47.78;27.15;;;;;;;-7.75;100.00;158568.34;5014429;28;20019;-63
2022/11/20 03:48:16;;;;;;;38.05;25.40;;;;;;;-7.79;100.00;158557.72;5007188;28;20071;-63
2022/11/20 03:50:42;;;;;;;47.88;28.50;;;;;;;-7.74;100.00;158571.03;5013991;28;20365;-63
2022/11/20 03:53:07;;;;;;;42.40;27.92;;;;;;;-7.75;100.00;158568.34;5012300;28;20069;-63
2022/11/20 03:55:32;;;;;;;42.35;27.23;;;;;;;-7.72;100.00;158575.00;5013718;28;20022;-63
2022/11/20 03:57:58;;;;;;;43.92;25.27;;;;;;;-7.71;100.00;158577.66;5012163;28;20042;-64
2022/11/20 04:00:23;;;;;;;43.35;25.33;;;;;;;-7.72;100.00;158576.34;5014123;28;20076;-64
2022/11/20 04:02:48;;;;;;;38.50;26.75;;;;;;;-7.78;100.00;158560.34;5012055;28;20033;-64
2022/11/20 04:05:14;;;;;;;35.15;25.30;;;;;;;-7.79;100.00;158557.72;5013813;28;20509;-64
2022/11/20 04:07:39;;;;;;;34.88;24.67;;;;;;;-7.83;100.00;158548.38;5012418;28;20069;-64
2022/11/20 04:10:05;;;;;;;39.33;24.95;;;;;;;-7.86;100.00;158540.38;5013663;28;20026;-62
2022/11/20 04:12:33;;;;;;;38.00;24.55;;;;;;;-7.87;100.00;158536.41;5012337;28;20046;-64
2022/11/20 04:14:59;;;;;;;36.80;26.15;;;;;;;-7.88;100.00;158535.03;5014023;28;20061;-64
2022/11/20 04:17:24;;;;;;;39.03;25.60;;;;;;;-7.90;100.00;158529.75;5011956;28;20045;-64
2022/11/20 04:19:49;;;;;;;42.83;27.33;;;;;;;-7.94;100.00;158519.06;5013222;28;20018;-64
2022/11/20 04:22:15;;;;;;;33.25;22.38;;;;;;;-7.97;100.00;158512.41;5012321;28;20046;-64
2022/11/20 04:24:41;;;;;;;40.90;26.88;;;;;;;-8.00;100.00;158504.41;5013001;28;20044;-64
2022/11/20 04:27:06;;;;;;;35.38;23.08;;;;;;;-8.01;100.00;158501.78;5012146;28;20045;-64
2022/11/20 04:29:31;;;;;;;37.72;24.48;;;;;;;-8.05;100.00;158491.09;5013551;28;20036;-64
2022/11/20 04:31:56;;;;;;;55.22;26.38;;;;;;;-8.02;100.00;158497.75;5011577;28;20041;-64
2022/11/20 04:34:22;;;;;;;33.35;22.30;;;;;;;-8.05;100.00;158491.09;5013746;28;20034;-64
2022/11/20 04:36:47;;;;;;;45.00;26.17;;;;;;;-8.03;100.00;158496.44;5011499;28;20501;-64
2022/11/20 04:39:15;;;;;;;36.55;22.60;;;;;;;-8.04;100.00;158492.47;5013140;28;20084;-64
2022/11/20 04:41:40;;;;;;;36.72;23.67;;;;;;;-8.06;100.00;158488.41;5012319;28;20037;-64
2022/11/20 04:44:06;;;;;;;36.05;22.63;;;;;;;-8.10;100.00;158477.78;5013158;28;20050;-64
2022/11/20 04:46:37;;;;;;;40.95;24.33;;;;;;;-8.11;100.00;158475.13;5011438;28;20493;-64
2022/11/20 04:49:02;;;;;;;33.22;22.98;;;;;;;-8.10;100.00;158477.78;5012839;28;20655;-64
2022/11/20 04:51:28;;;;;;;30.63;22.13;;;;;;;-8.10;100.00;158477.78;5011512;28;20041;-64
2022/11/20 04:53:54;;;;;;;36.08;23.90;;;;;;;-8.13;100.00;158471.16;5012247;28;20045;-64
2022/11/20 04:56:19;;;;;;;38.70;24.92;;;;;;;-8.16;100.00;158461.81;5011410;28;20045;-63
2022/11/20 04:58:45;;;;;;;33.35;21.33;;;;;;;-8.19;100.00;158455.13;5012729;28;20033;-63
2022/11/20 05:01:16;;;;;;;35.50;23.95;;;;;;;-8.22;100.00;158445.81;5011821;28;20122;-62
2022/11/20 05:03:43;;;;;;;45.67;24.00;;;;;;;-8.22;100.00;158445.81;5012325;28;20034;-63
2022/11/20 05:06:10;;;;;;;39.33;24.17;;;;;;;-8.24;100.00;158440.50;5011787;28;20026;-63
2022/11/20 05:08:36;;;;;;;46.10;24.92;;;;;;;-8.25;100.00;158437.84;5012786;28;20029;-63
2022/11/20 05:11:03;;;;;;;35.75;24.58;;;;;;;-8.25;100.00;158439.16;5011145;28;20030;-63
2022/11/20 05:13:29;;;;;;;36.42;24.10;;;;;;;-8.26;100.00;158435.16;5012257;28;20033;-64
2022/11/20 05:15:54;;;;;;;40.55;25.58;;;;;;;-8.27;100.00;158432.50;5012458;28;20022;-64
2022/11/20 05:18:19;;;;;;;42.25;27.95;;;;;;;-8.26;100.00;158435.16;5029785;28;20399;-64
2022/11/20 05:20:45;;;;;;;45.72;26.70;;;;;;;-8.27;100.00;158432.50;5031734;28;20037;-63
2022/11/20 05:23:10;;;;;;;39.67;25.83;;;;;;;-8.26;100.00;158435.16;5030834;28;20037;-63
2022/11/20 05:25:35;;;;;;;46.28;26.25;;;;;;;-8.26;100.00;158435.16;5031935;28;20522;-63
2022/11/20 05:28:01;;;;;;;43.08;23.27;;;;;;;-8.30;100.00;158427.16;5012965;28;20045;-63
2022/11/20 05:30:26;;;;;;;43.10;25.83;;;;;;;-8.30;100.00;158425.84;5011056;28;20029;-63
2022/11/20 05:32:51;;;;;;;38.63;22.17;;;;;;;-8.36;100.00;158411.19;5009590;28;20071;-63
2022/11/20 05:35:17;;;;;;;42.92;26.42;;;;;;;-8.32;100.00;158421.88;5012461;28;20110;-63
2022/11/20 05:37:42;;;;;;;46.30;24.92;;;;;;;-8.43;100.00;158391.25;5010612;28;20045;-63
2022/11/20 05:40:08;;;;;;;39.72;23.85;;;;;;;-8.33;100.00;158417.84;5012096;28;20567;-63
2022/11/20 05:42:34;;;;;;;44.35;25.92;;;;;;;-8.35;100.00;158412.56;5010522;28;20058;-62
2022/11/20 05:45:00;;;;;;;43.17;25.25;;;;;;;-8.32;100.00;158421.88;5011572;28;20025;-63
2022/11/20 05:47:27;;;;;;;38.15;22.77;;;;;;;-8.32;100.00;158421.88;5010146;28;20492;-63
2022/11/20 05:49:53;;;;;;;34.65;22.88;;;;;;;-8.34;100.00;158416.53;5011503;28;20108;-63
2022/11/20 05:52:18;;;;;;;44.35;25.73;;;;;;;-8.29;100.00;158428.53;5010798;28;20492;-62
2022/11/20 05:54:44;;;;;;;36.15;23.67;;;;;;;-8.24;100.00;158440.50;5011166;28;20545;-63
2022/11/20 05:57:09;;;;;;;51.45;28.70;;;;;;;-8.26;100.00;158435.16;5010389;28;20127;-63
2022/11/20 05:59:34;;;;;;;43.22;26.25;;;;;;;-8.29;100.00;158429.84;5011736;28;20037;-63
2022/11/20 06:02:00;;;;;;;41.20;27.88;;;;;;;-8.36;100.00;158411.19;5009661;28;20050;-63
2022/11/20 06:04:25;;;;;;;41.67;27.25;;;;;;;-8.39;100.00;158401.88;5011073;28;20042;-64
2022/11/20 06:06:50;;;;;;;37.58;22.77;;;;;;;-8.49;100.00;158376.63;5009823;28;20041;-64
2022/11/20 06:09:16;;;;;;;31.58;21.73;;;;;;;-8.37;100.00;158408.53;5011506;28;20025;-64
2022/11/20 06:11:41;;;;;;;45.00;26.13;;;;;;;-8.35;100.00;158413.88;5010072;28;20043;-64
2022/11/20 06:14:06;;;;;;;29.23;22.55;;;;;;;-8.34;100.00;158416.53;5011182;28;20024;-64
2022/11/20 06:16:32;;;;;;;44.30;27.23;;;;;;;-8.38;100.00;158405.91;5010086;28;20420;-64
2022/11/20 06:18:57;;;;;;;39.13;21.98;;;;;;;-8.45;100.00;158387.25;5011142;28;20033;-64
2022/11/20 06:21:22;;;;;;;32.35;22.77;;;;;;;-8.44;100.00;158389.88;5009697;28;20041;-64
2022/11/20 06:23:49;;;;;;;41.78;23.00;;;;;;;-8.48;100.00;158380.63;5010832;28;20026;-62
2022/11/20 06:26:18;;;;;;;37.60;22.23;;;;;;;-8.44;100.00;158389.88;5009658;28;20046;-62
2022/11/20 06:28:44;;;;;;;37.70;22.52;;;;;;;-8.43;100.00;158392.56;5010977;28;20025;-62
2022/11/20 06:31:12;;;;;;;38.75;26.02;;;;;;;-8.42;100.00;158395.22;5009243;28;20029;-62
2022/11/20 06:33:37;;;;;;;36.92;21.95;;;;;;;-8.47;100.00;158383.28;5011270;28;20033;-62
2022/11/20 06:36:04;;;;;;;37.95;25.15;;;;;;;-8.45;100.00;158388.56;5009594;28;20409;-62
2022/11/20 06:38:29;;;;;;;30.63;22.27;;;;;;;-8.48;100.00;158379.31;5020928;28;20036;-62
2022/11/20 06:40:55;;;;;;;33.42;22.40;;;;;;;-8.42;100.00;158395.22;5028307;28;20030;-58
2022/11/20 06:43:21;;;;;;;39.90;23.25;;;;;;;-8.41;100.00;158397.91;5015376;28;20192;-60
2022/11/20 06:45:51;;;;;;;32.38;22.02;;;;;;;-8.39;100.00;158401.88;5010038;28;20476;-62
2022/11/20 06:48:17;;;;;;;36.58;22.38;;;;;;;-8.39;100.00;158403.22;5008903;28;20045;-62
2022/11/20 06:50:42;;;;;;;26.95;21.20;;;;;;;-8.50;100.00;158373.97;5009890;28;20029;-62
2022/11/20 06:53:07;;;;;;;30.70;20.35;;;;;;;-8.38;100.00;158405.91;5008409;28;20038;-62
2022/11/20 06:55:33;;;;;;;28.98;22.25;;;;;;;-8.39;100.00;158403.22;5014828;28;20388;-61
2022/11/20 06:57:58;;;;;;;27.20;22.38;;;;;;;-8.43;100.00;158391.25;5008089;28;20038;-62
2022/11/20 07:00:24;;;;;;;35.80;23.60;;;;;;;-8.37;100.00;158408.53;5010028;28;20045;-61
2022/11/20 07:02:49;;;;;;;36.58;22.02;;;;;;;-8.39;100.00;158403.22;5008709;28;20475;-62
2022/11/20 07:05:15;;;;;;;38.00;25.58;;;;;;;-8.39;100.00;158403.22;5008994;28;20022;-61
2022/11/20 07:07:40;;;;;;;40.45;27.42;;;;;;;-8.30;100.00;158427.16;5008623;28;20038;-61
2022/11/20 07:10:06;;;;;;;36.92;25.08;;;;;;;-8.26;100.00;158435.16;5019590;28;20014;-61
2022/11/20 07:12:31;;;;;;;30.52;21.58;;;;;;;-8.27;100.00;158433.84;5018639;28;20503;-61
2022/11/20 07:14:56;;;;;;;31.13;22.88;;;;;;;-8.23;100.00;158444.50;5010348;28;20025;-61
2022/11/20 07:17:22;;;;;;;42.70;25.35;;;;;;;-8.21;100.00;158449.84;5011240;28;21681;-61
2022/11/20 07:19:47;;;;;;;36.22;25.48;;;;;;;-8.28;100.00;158431.19;5013153;28;20132;-61
2022/11/20 07:22:13;;;;;;;35.92;25.33;;;;;;;-8.09;100.00;158479.09;5024422;28;20034;-61
2022/11/20 07:24:38;;;;;;;44.45;26.48;;;;;;;-8.07;100.00;158485.75;5013844;28;20106;-61
2022/11/20 07:27:04;;;;;;;38.67;29.23;;;;;;;-8.03;100.00;158496.44;5011994;28;20050;-61
2022/11/20 07:29:29;;;;;;;40.42;26.92;;;;;;;-8.00;100.00;158504.41;5013343;28;20443;-61
2022/11/20 07:31:56;;;;;;;37.83;27.27;;;;;;;-8.00;100.00;158504.41;5012638;28;20034;-61
2022/11/20 07:34:21;;;;;;;36.85;27.80;;;;;;;-7.98;100.00;158509.75;5013099;28;20040;-61
2022/11/20 07:36:46;;;;;;;40.38;28.08;;;;;;;-7.93;100.00;158520.41;5011272;28;20493;-61
2022/11/20 07:39:12;;;;;;;39.75;27.98;;;;;;;-7.87;100.00;158536.41;5013700;28;20026;-61
2022/11/20 07:41:37;;;;;;;42.72;27.08;;;;;;;-7.74;100.00;158569.72;5011171;28;20488;-61
2022/11/20 07:44:02;;;;;;;39.42;25.65;;;;;;;-7.66;100.00;158592.34;5012900;28;20060;-61
2022/11/20 07:46:28;;;;;;;37.83;28.13;;;;;;;-7.51;100.00;158629.63;5014793;28;20436;-61
2022/11/20 07:48:53;;;;;;;40.53;27.85;;;;;;;-7.36;100.00;158669.63;5012889;28;20025;-61
2022/11/20 07:51:19;;;;;;;37.78;24.92;;;;;;;-7.30;100.00;158682.94;5010297;28;20038;-61
2022/11/20 07:53:44;;;;;;;35.97;24.55;;;;;;;-7.18;100.00;158714.88;5011600;28;20481;-61
2022/11/20 07:56:09;;;;;;;34.15;26.70;;;;;;;-7.09;100.00;158737.59;5012055;28;20029;-59
2022/11/20 07:58:35;;;;;;;34.08;24.15;;;;;;;-7.02;100.00;158757.56;5023344;28;20029;-60
2022/11/20 08:01:05;;;;;;;36.92;26.13;;;;;;;-6.97;100.00;158769.56;5011307;28;20751;-59
2022/11/20 08:03:30;;;;;;;36.97;24.48;;;;;;;-6.91;100.00;158785.53;5030286;28;20125;-60
2022/11/20 08:06:00;;;;;;;31.17;24.80;;;;;;;-6.78;100.00;158818.88;5011832;28;20469;-59
2022/11/20 08:08:25;;;;;;;38.47;26.30;;;;;;;-6.55;100.00;158877.53;5014264;28;20069;-60
2022/11/20 08:10:50;;;;;;;38.33;26.27;;;;;;;-6.35;100.00;158928.19;5012804;28;20021;-60
2022/11/20 08:15:59;;;;;;;37.17;27.60;;;;;;;-5.92;100.00;159040.22;5011344;28;20396;-60
2022/11/20 08:18:25;;;;;;;43.70;31.83;;;;;;;-5.74;100.00;159088.22;5012917;28;20022;-60
2022/11/20 08:20:50;;;;;;;44.13;28.85;;;;;;;-5.57;100.00;159130.94;5011652;28;20018;-60
2022/11/20 08:23:15;;;;;;;40.70;29.83;;;;;;;-5.42;100.00;159170.97;5011328;28;20046;-60
2022/11/20 08:25:41;;;;;;;45.65;28.42;;;;;;;-5.23;100.00;159219.00;5012893;28;20480;-60
2022/11/20 08:28:09;;;;;;;44.15;30.83;;;;;;;-5.03;100.00;159269.75;5009765;28;20042;-60
2022/11/20 08:30:35;;;;;;;37.15;24.67;;;;;;;-4.70;100.00;159355.19;5012577;28;20033;-60
2022/11/20 08:33:06;;;;;;;43.45;27.90;;;;;;;-4.26;100.00;159470.03;5011077;28;20937;-60
2022/11/20 08:35:33;;;;;;;47.63;31.30;;;;;;;-3.74;100.00;159603.63;5011658;28;20030;-58
2022/11/20 08:37:58;;;;;;;37.17;29.20;;;;;;;-3.20;100.00;159745.31;5010994;28;20046;-60
2022/11/20 08:40:24;;;;;;;35.90;26.85;;;;;;;-2.97;100.00;159804.16;5014295;28;20037;-61
2022/11/20 08:42:50;;;;;;;35.05;27.60;;;;;;;-2.95;100.00;159809.53;5009843;28;20041;-61
2022/11/20 08:45:17;;;;;;;35.38;26.25;;;;;;;-2.94;100.00;159812.16;5011460;28;20049;-60
2022/11/20 08:47:43;;;;;;;39.63;28.83;;;;;;;-2.58;100.00;159904.44;5011033;28;20050;-61
2022/11/20 08:50:10;;;;;;;36.10;27.23;;;;;;;-2.33;100.00;159969.97;5011400;28;20036;-61
2022/11/20 08:52:35;;;;;;;36.60;29.67;;;;;;;-2.01;100.00;160052.94;5009841;28;20045;-60
2022/11/20 08:55:01;;;;;;;32.78;27.25;;;;;;;-1.47;100.00;160192.13;5012539;28;20124;-61
2022/11/20 08:57:26;;;;;;;34.30;28.38;;;;;;;-0.91;100.00;160336.72;5010328;28;20447;-60
2022/11/20 08:59:51;;;;;;;35.03;25.75;;;;;;;-0.52;100.00;160439.84;5012106;28;20026;-61
2022/11/20 09:02:17;;;;;;;44.00;27.77;;;;;;;-0.13;100.00;160540.34;5024336;28;20045;-60
2022/11/20 09:04:42;;;;;;;31.15;24.58;;;;;;;0.18;100.00;160620.78;5010093;28;20026;-61
2022/11/20 09:07:07;;;;;;;35.65;26.83;;;;;;;-146.58;100.00;69501.63;5010320;28;20052;-61
2022/11/20 09:09:33;;;;;;;32.92;24.50;;;;;;;0.38;100.00;160673.00;5012582;28;20034;-61
2022/11/20 09:11:58;;;;;;;35.92;26.08;;;;;;;0.82;100.00;160786.97;5009404;28;20103;-62
2022/11/20 09:14:28;;;;;;;28.02;24.65;;;;;;;1.06;100.00;160848.69;5011441;28;20385;-62
2022/11/20 09:16:54;;;;;;;33.45;27.10;;;;;;;1.38;100.00;160931.78;5013657;28;20061;-61
2022/11/20 09:19:19;;;;;;;30.25;24.00;;;;;;;1.32;100.00;160915.72;5023582;28;20083;-61
2022/11/20 09:21:45;;;;;;;32.60;23.85;;;;;;;1.40;100.00;160937.19;5009907;28;20038;-61
2022/11/20 09:24:10;;;;;;;28.77;24.35;;;;;;;-146.58;100.00;69501.63;5018581;28;20041;-61
2022/11/20 09:26:35;;;;;;;29.40;23.48;;;;;;;1.71;100.00;161017.69;5010028;28;20034;-61
2022/11/20 09:29:01;;;;;;;27.67;24.40;;;;;;;1.93;100.00;161074.03;5011328;28;20022;-61
2022/11/20 09:31:26;;;;;;;28.05;21.13;;;;;;;2.37;100.00;161189.47;5010816;28;20046;-61
2022/11/20 09:33:52;;;;;;;25.85;21.25;;;;;;;2.60;100.00;161248.53;5010622;28;20468;-61
2022/11/20 09:36:18;;;;;;;30.17;23.45;;;;;;;2.96;100.00;161342.50;5010445;28;20416;-59
2022/11/20 09:38:45;;;;;;;27.42;22.77;;;;;;;3.36;100.00;161445.94;5011849;28;20034;-60
2022/11/20 09:41:40;;;;;;;31.83;22.95;;;;;;;3.78;100.00;161557.44;5009714;28;20034;-59
2022/11/20 09:44:38;;;;;;;29.88;25.25;;;;;;;3.95;100.00;161600.47;5010668;28;20046;-62
2022/11/20 09:47:25;;;;;;;29.92;22.73;;;;;;;4.25;100.00;161678.41;5010315;28;20048;-62
2022/11/20 09:50:15;;;;;;;25.75;20.38;;;;;;;4.40;100.00;161717.38;5010027;28;20096;-61
2022/11/20 09:53:12;;;;;;;31.58;21.88;;;;;;;4.62;100.00;161775.22;5009773;28;20046;-60
2022/11/20 09:55:39;;;;;;;27.23;21.05;;;;;;;4.57;100.00;161761.78;5010616;28;20107;-60
2022/11/20 09:58:17;;;;;;;24.42;21.27;;;;;;;4.96;100.00;161863.94;5009651;28;20484;-60
2022/11/20 10:00:44;;;;;;;23.25;20.20;;;;;;;5.01;100.00;161877.41;5011413;28;20021;-60
2022/11/20 10:03:29;;;;;;;25.15;20.58;;;;;;;4.86;100.00;161837.06;5008965;28;20056;-59
2022/11/20 10:05:55;;;;;;;27.15;23.38;;;;;;;4.42;100.00;161722.78;5011030;28;20381;-60
2022/11/20 10:08:41;;;;;;;27.65;23.85;;;;;;;3.96;100.00;161604.47;5010050;28;20042;-59
2022/11/20 10:11:43;;;;;;;28.63;24.35;;;;;;;3.51;100.00;161484.91;5002847;28;20034;-59
2022/11/20 10:14:22;;;;;;;32.58;24.85;;;;;;;3.23;100.00;161412.38;4991274;28;20027;-60
2022/11/20 10:17:17;;;;;;;29.92;24.70;;;;;;;3.52;100.00;161487.59;4990134;28;20046;-60
2022/11/20 10:20:40;;;;;;;36.50;27.75;;;;;;;3.66;100.00;161525.22;5006218;28;20022;-60
2022/11/20 10:23:27;;;;;;;30.17;23.90;;;;;;;3.78;100.00;161557.44;4967573;28;20102;-59
2022/11/20 10:26:22;;;;;;;29.70;25.50;;;;;;;3.65;100.00;161522.53;5010502;28;20022;-60
2022/11/20 10:29:27;;;;;;;29.92;26.85;;;;;;;3.39;100.00;161454.00;5008624;28;20054;-59
2022/11/20 10:32:00;;;;;;;31.05;24.15;;;;;;;3.08;100.00;161374.78;4987138;28;20073;-59
2022/11/20 10:34:43;;;;;;;30.40;25.70;;;;;;;3.03;100.00;161361.31;4999445;28;20477;-59
2022/11/20 10:37:15;;;;;;;28.02;24.55;;;;;;;3.08;100.00;161374.78;5009500;28;20054;-59
2022/11/20 10:39:56;;;;;;;31.80;24.33;;;;;;;2.84;100.00;161313.00;5009975;28;20026;-59
2022/11/20 10:42:38;;;;;;;33.08;25.75;;;;;;;2.57;100.00;161240.50;4999780;28;20077;-59
2022/11/20 10:45:21;;;;;;;28.50;23.30;;;;;;;2.33;100.00;161178.75;5010263;28;20034;-59
2022/11/20 10:47:47;;;;;;;24.52;21.77;;;;;;;2.12;100.00;161123.69;5008192;28;20074;-59
2022/11/20 10:50:19;;;;;;;27.00;24.17;;;;;;;1.93;100.00;161074.03;5010120;28;20025;-59
2022/11/20 10:53:04;;;;;;;30.20;24.35;;;;;;;1.90;100.00;161068.66;5008242;28;20054;-59
2022/11/20 10:55:50;;;;;;;29.45;23.98;;;;;;;1.87;100.00;161060.63;5009676;28;20049;-59
2022/11/20 10:58:43;;;;;;;28.88;23.52;;;;;;;1.83;100.00;161049.88;5008947;28;20527;-59
2022/11/20 11:01:18;;;;;;;27.48;22.00;;;;;;;1.74;100.00;161025.75;5009110;28;20057;-58
2022/11/20 11:03:44;;;;;;;32.67;25.40;;;;;;;1.79;100.00;161037.84;5009445;28;20494;-59
2022/11/20 11:06:20;;;;;;;28.10;23.67;;;;;;;1.80;100.00;161041.84;5008678;28;20033;-58
2022/11/20 11:08:49;;;;;;;27.75;21.90;;;;;;;1.82;100.00;161045.84;5009754;28;20604;-58
2022/11/20 11:11:20;;;;;;;38.65;27.70;;;;;;;1.89;100.00;161066.00;5009023;28;20033;-58